This is the latest recevied weather packets stored in our database for station/object F8BJE-13. If no packets are shown the sender has not sent any weather packets the latest 10 day(s).
| Time | Temp. | Humidity | Pressure | Rain* | Wind** | Luminosity | Snow |
|---|---|---|---|---|---|---|---|
| 1787731203 | 28.33° C | 50% | 1018.5 hPa | 0 mm | - | - | - |
| 1787729403 | 27.78° C | 51% | 1018.6 hPa | 0 mm | - | - | - |
| 1787727603 | 25° C | 58% | 1018.5 hPa | 0 mm | - | - | - |
| 1787725803 | 22.22° C | 69% | 1018.3 hPa | 0 mm | - | - | - |
| 1787724003 | 17.78° C | 91% | 1018.1 hPa | 0 mm | - | - | - |
| 1787722203 | 14.44° C | 94% | 1017.9 hPa | 0 mm | - | - | - |
| 1787720403 | 14.44° C | 94% | 1018 hPa | 0 mm | - | - | - |
| 1787718603 | 14.44° C | 92% | 1017.9 hPa | 0 mm | - | - | - |
| 1787716803 | 15° C | 90% | 1017.9 hPa | 0 mm | - | - | - |
| 1787715003 | 15° C | 88% | 1017.8 hPa | 0 mm | - | - | - |
| 1787713203 | 15° C | 87% | 1017.5 hPa | 0 mm | - | - | - |
| 1787711403 | 15.56° C | 87% | 1017.6 hPa | 0 mm | - | - | - |
| 1787709603 | 15.56° C | 86% | 1017.6 hPa | 0 mm | - | - | - |
| 1787707803 | 15.56° C | 86% | 1017.3 hPa | 0 mm | - | - | - |
| 1787706003 | 15.56° C | 86% | 1017.2 hPa | 0 mm | - | - | - |
| 1787704203 | 15.56° C | 85% | 1017 hPa | 0 mm | - | - | - |
| 1787702403 | 16.11° C | 85% | 1017 hPa | 0 mm | - | - | - |
| 1787700603 | 16.67° C | 84% | 1017 hPa | 0 mm | - | - | - |
| 1787698803 | 16.67° C | 82% | 1016.7 hPa | 0 mm | - | - | - |
| 1787697003 | 17.22° C | 82% | 1017 hPa | 0 mm | - | - | - |
| 1787695203 | 17.78° C | 82% | 1016.7 hPa | 0 mm | - | - | - |
| 1787693403 | 17.78° C | 84% | 1016.8 hPa | 0 mm | - | - | - |
| 1787691603 | 18.33° C | 82% | 1016.4 hPa | 0 mm | - | - | - |
| 1787689803 | 18.33° C | 80% | 1016.4 hPa | 0 mm | - | - | - |
| 1787688003 | 18.89° C | 76% | 1016.2 hPa | 0 mm | - | - | - |
* Rain latest hour (hover to see other rain measurements)
** Current wind speed in m/s (hover to see current wind gust speed)